Search flights

Pudong Airport, Shanghai (ZSPD)

Airport Weather & NOTAM's

METAR for:ZSPD (Shanghai/Pudong Intl, SH, CN)
Text:ZSPD 140530Z 24004MPS CAVOK 32/26 Q1008 NOSIG
Conditions at:0530 UTC 14 Jul 2024
Temperature: 32.0°C ( 90°F)
Dewpoint: 26.0°C ( 79°F) [RH = 71%]
Pressure (altimeter):29.76 inches Hg (1008.0 mb)
Winds:from the WSW (240 degrees) at 9 MPH (8 knots; 4.1 m/s)
Visibility:6 or more sm (10+ km)
Ceiling:ceiling and visibility are OK
Clouds:unknown
TAF for:ZSPD (Shanghai/Pudong Intl, SH, CN) issued at 0305 UTC 14 Jul 2024
Text:TAF ZSPD 140305Z 1406/1512 16004MPS 6000 BKN015 TX31/1406Z TX32/1506Z TN27/1421Z
Forecast period:0600 UTC 14 July 2024 to 1200 UTC 15 July 2024
Forecast type:FROM: standard forecast or significant change
Winds:from the SSE (160 degrees) at 9 MPH (8 knots; 4.1 m/s)
Visibility:4 sm (6 km)
Ceiling:1500 feet AGL
Clouds:broken clouds at 1500 feet AGL
Temperature:MAX 31°C at 0600 UTC 14 Jul 2024
Temperature:MAX 32°C at 0600 UTC 14 Jul 2024
Temperature:MIN 27°C at 2100 UTC 14 Jul 2024
Text:TEMPO 1406/1412 TSRA BKN008 SCT030CB
Forecast period:0600 to 1200 UTC 14 July 2024
Forecast type:TEMPORARY: The following changes expected for less than half the time period
Ceiling:800 feet AGL
Clouds:broken clouds at 800 feet AGL, scattered clouds at 3000 feet AGL
Weather:TSRA (rain associated with thunderstorm(s))

Live Departures & Arrivals

There are currently no arrivals or departures for this airport.

Departures History (last 12 months)

Flight No. Dest. Aircraft Date
FX 656 PHNL FEDEX-B77F 2024-06-15 00:00:00
FX 645 WSSS FEDEX-B77F 2024-06-15 00:00:00
FX 642 KMEM FEDEX-B77F 2024-06-08 00:00:00
FX 646 ZGGG FEDEX-B77F 2024-06-08 00:00:00
CONNECT 05 PGUM FEDEX-B77F 2024-06-07 00:00:00
FX642 KMEM FEDEX-B77F 2024-05-10 00:00:00
CONNECT 241 RPLL FEDEX-MD11... 2024-05-05 00:00:00
CONNECT 241 RPLL FEDEX-B77F 2024-05-05 00:00:00
CONNECT240 RPLL FEDEX-B77F 2024-05-03 00:00:00
FX646 ZGGG FEDEX-B77F 2024-05-03 00:00:00
FX696 OMDW FEDEX-B77F 2024-04-13 00:00:00
CONNECT156 RJAA FEDEX-B77F 2024-04-14 00:00:00
CONNECT 156 RJAA FEDEX-B77F 2024-04-11 00:00:00
CONNECT 156 RJAA FEDEX-B77F 2024-04-11 00:00:00
CONNECT 156 RJAA FEDEX-B77F 2024-04-11 00:00:00
CONNECT 156 RJAA FEDEX-B77F 2024-04-11 00:00:00
CONNECT 462 KMEM FEDEX-B77F 2024-03-29 00:00:00
CONNECT 462 KMEM FEDEX-B77F 2024-03-29 00:00:00
CONNECT 462 KMEM FEDEX-B77F 2024-03-28 00:00:00
CONNECT2 ZSSS FEDEX-MD11... 2024-03-29 00:00:00
CONNECT 462 KMEM FEDEX-B77F 2024-03-27 00:00:00
CONNECT 462 KMEM FEDEX-B77F 2024-03-27 00:00:00
CONNECT 462 KMEM FEDEX-B77F 2024-03-27 00:00:00
FX CTR VHHH FEDEX-MD11... 2024-03-10 00:00:00
FX 642 KMEM FEDEX-B77F 2024-03-10 00:00:00
FX 642 KMEM FEDEX-B77F 2024-03-09 00:00:00
FX 642 KMEM FEDEX-B77F 2024-03-08 00:00:00
FX 642 KMEM FEDEX-B77F 2024-03-08 00:00:00
FX 794 PANC FEDEX-MD11... 2024-03-03 00:00:00
FX 643 KOAK FEDEX-B77F 2024-03-01 00:00:00
FX 830 PANC FEDEX-B77F 2024-02-15 00:00:00
CONNECT 3712 EDDK FEDEX-MD11... 2024-02-08 00:00:00
CONNECT 3712 EDDK FEDEX-MD11... 2024-02-07 00:00:00
CONNECT 3712 EDDK FEDEX-MD11... 2024-02-07 00:00:00
CONNECT 3712 EDDK FEDEX-MD11... 2024-02-06 00:00:00
FX 672 KMEM FEDEX-B77F 2024-02-03 00:00:00
FX CTR KJFK TNT-B77F 2024-01-29 00:00:00
FX 683 RPLL FEDEX-B77F 2024-01-29 00:00:00
TNT 106 EBLG TNT-B77F 2024-01-24 00:00:00
TNT 106 EBLG TNT-B77F 2024-01-23 00:00:00
FX 673 KOAK FEDEX-B77F 2024-01-19 00:00:00
FX 677 ZGGG FEDEX-MD11... 2024-01-16 00:00:00
FX 673 KOAK FEDEX-B77F 2024-01-16 00:00:00
FX WINTER 37 RCTP B752 2024-01-05 00:00:00
FX WINTER 37 RCTP B752 2024-01-05 00:00:00
FX WINTER 37 RCTP B752 2024-01-05 00:00:00
FX WINTER 37 RCTP B752 2023-12-27 00:00:00
FX WINTER 37 RCTP B752 2023-12-25 00:00:00
FX WINTER 37 RCTP B752 2023-12-24 00:00:00
FX672 KMEM B77F 2023-12-10 00:00:00
FX WINTER 37 RCTP B752 2023-12-09 00:00:00
FX CTR RCTP B752 2023-12-09 00:00:00
FX CTR RCTP B77F 2023-12-09 00:00:00
FX673 KOAK B77F 2023-12-09 00:00:00
FX WINTER 37 RCTP B752 2023-12-07 00:00:00
FX 683 RPLL MD11F 2023-11-13 00:00:00
FX 672 KMEM B77F 2023-11-10 00:00:00
FX 678 EDDK B77F 2023-11-08 00:00:00
FX674 OMDB B77F 2023-11-07 00:00:00
FX 673 KOAK B77F 2023-11-03 00:00:00
FX673 KOAK B77F 2023-10-26 00:00:00
FX 673 KOAK B77F 2023-10-16 00:00:00
KE 002 RKSI KOREAN B77... 2023-09-30 00:00:00
FX 731 OMDW B77F 2023-09-24 00:00:00
FX 679 ZBAA B77F 2023-09-24 00:00:00
FX672 KMEM B77F 2023-09-24 00:00:00
FX 731 OMDW B77F 2023-09-23 00:00:00
FX 683 RPLL B77F 2023-09-18 00:00:00
FX ROTW EGCC B77F 2023-08-26 00:00:00
FX ROTW ZBAA MD11F 2023-08-26 00:00:00
FXROTW EGCC B77F 2023-08-26 00:00:00
FX ROTW EGCC B77F 2023-08-26 00:00:00
FX687 PHNL B77F 2023-08-23 00:00:00
FX CTR RJTT DC10F 2023-08-07 00:00:00
FX687 PHNL MD11F 2023-08-06 00:00:00
FXCTR ZKPY DC10F 2023-08-01 00:00:00
FX 672 KMEM B77F 2023-07-31 00:00:00
FX 672 KMEM B77F 2023-07-25 00:00:00

Arrivals History (last 12 months)

Flight No. Origin Aircraft Date
CONNECT115 PGUM FEDEX-B77F 2024-06-19 00:00:00
CONNECT115 PGUM FEDEX-B77F 2024-06-17 00:00:00
FX 683 PANC FEDEX-B77F 2024-06-12 00:00:00
FX 659 PGUM FEDEX-B77F 2024-06-08 00:00:00
FX 609 ZGGG FEDEX-B77F 2024-06-08 00:00:00
FX 200 KMEM FEDEX-B77F 2024-06-07 00:00:00
FX CTR LFPG FEDEX-DC10... 2024-06-01 00:00:00
FX609 ZGGG FEDEX-B77F 2024-05-09 00:00:00
FX609 ZGGG FEDEX-B77F 2024-05-03 00:00:00
FX657 PHNL FEDEX-B77F 2024-04-11 00:00:00
FX CONNECT 2 WSSS FEDEX-MD11... 2024-03-27 00:00:00
CONNECT 2 WSSS FEDEX-MD11... 2024-03-27 00:00:00
CONNECT 2 WSSS FEDEX-MD11... 2024-03-27 00:00:00
FX 657 PHNL FEDEX-B77F 2024-03-07 00:00:00
FX 683 PANC FEDEX-B77F 2024-03-02 00:00:00
FX CTR VHHH FEDEX-MD11... 2024-02-10 00:00:00
FX 716 PANC FEDEX-B77F 2024-02-06 00:00:00
FX716 PANC FEDEX-B77F 2024-02-01 00:00:00
FX 716 PANC FEDEX-B77F 2024-02-02 00:00:00
FX 688 PHNL FEDEX-B77F 2024-01-27 00:00:00
FX 236 EDDK FEDEX-B77F 2024-01-21 00:00:00
KE 001 RKSI KOREAN-B77... 2024-01-16 00:00:00
FX 680 ZBAA FEDEX-B77F 2024-01-16 00:00:00
FX WINTER 36 RJBB B77F 2024-01-04 00:00:00
FX WINTER 36 RJBB B77F 2024-01-04 00:00:00
FX WINTER 36 RJBB B77F 2024-01-04 00:00:00
FX WINTER 36 RJBB B77F 2023-12-27 00:00:00
FX WINTER 36 RJBB B77F 2023-12-25 00:00:00
FX WINTER 36 RJBB B77F 2023-12-24 00:00:00
FX WINTER 36 RJBB B77F 2023-12-09 00:00:00
FX WINTER 36 RJBB B77F 2023-12-07 00:00:00
FX 201 KMEM B77F 2023-11-12 00:00:00
236 EDDK B77F 2023-11-09 00:00:00
FX716 PANC B77F 2023-11-06 00:00:00
FX 419 WSSS MD11F 2023-11-02 00:00:00
FX ROTW RKSI B77F 2023-10-30 00:00:00
FX ROTW RKSI B77F 2023-10-30 00:00:00
FX ROTW RKSI B77F 2023-10-30 00:00:00
FX ROTW RKSI B77F 2023-10-30 00:00:00
FX ROTW RKSI B77F 2023-10-30 00:00:00
FX225 KOAK B77F 2023-09-30 00:00:00
FX425 LIMC B77F 2023-09-28 00:00:00
FX688 PHNL MD11F 2023-09-23 00:00:00
KE 001 RKSI KOREAN B77... 2023-09-19 00:00:00
KE001 RKSI KOREAN B77... 2023-09-15 00:00:00
KE 001 RKSI KOREAN B77... 2023-09-14 00:00:00
FX 201 KMEM B77F 2023-09-15 00:00:00
KE 001 RKSI KOREAN B77... 2023-09-14 00:00:00
KE 001 RKSI KOREAN B77... 2023-09-14 00:00:00
FX ROTW KMIA B77F 2023-08-25 00:00:00
FX CTR RJTT B77F 2023-08-25 00:00:00
FX 330 RJBB B77F 2023-08-25 00:00:00
FX ROTW KMIA B77F 2023-08-25 00:00:00
FX ROTW KMIA B77F 2023-08-24 00:00:00
FX225 KOAK B77F 2023-08-22 00:00:00
TNT 142 WSSS TNT B77F 2023-08-20 00:00:00
ET 009 HAAB ETHIOPIAN... 2023-08-12 00:00:00
FX ROTW RKSI B752 2023-08-09 00:00:00
FX ROTW VTBS MD11F 2023-08-09 00:00:00
FX CTR SAWH B77F 2023-08-06 00:00:00
FX CTR VNKT B77F 2023-08-02 00:00:00
FX 680 ZBAA B77F 2023-08-02 00:00:00
FX 201 KMEM B77F 2023-08-02 00:00:00
FX 716 PANC B77F 2023-08-01 00:00:00
FX 201 KMEM B77F 2023-07-30 00:00:00
FX 682 VIDP B77F 2023-07-23 00:00:00
FX330 RJBB B77F 2023-07-21 00:00:00

Runway Information (Airport elevation: 11ft)

Runway 16L Length 12,467ft Width 194ft Elevation 11ft Surface Asphalt Heading 162
Runway 16R Length 12,468ft Width 194ft Elevation 11ft Surface Asphalt Heading 162
Runway 17L Length 13,122ft Width 184ft Elevation 11ft Surface Asphalt Heading 162
Runway 17R Length 11,155ft Width 189ft Elevation 11ft Surface Asphalt Heading 162
Runway 34L Length 12,468ft Width 194ft Elevation 11ft Surface Asphalt Heading 342
Runway 34R Length 12,467ft Width 194ft Elevation 11ft Surface Asphalt Heading 342
Runway 35L Length 11,155ft Width 189ft Elevation 11ft Surface Asphalt Heading 342
Runway 35R Length 13,122ft Width 184ft Elevation 11ft Surface Asphalt Heading 342

Airport Frequencies

Type APP/DEP Frequency 119.075 Mhz
Type APP/DEP Frequency 119.200 Mhz
Type APP/DEP Frequency 119.750 Mhz
Type APP/DEP Frequency 120.300 Mhz
Type APP/DEP Frequency 120.650 Mhz
Type APP/DEP Frequency 121.100 Mhz
Type APP/DEP Frequency 121.375 Mhz
Type APP/DEP Frequency 123.800 Mhz
Type APP/DEP Frequency 124.050 Mhz
Type APP/DEP Frequency 125.400 Mhz
Type APP/DEP Frequency 125.625 Mhz
Type APP/DEP Frequency 125.850 Mhz
Type APP/DEP Frequency 126.300 Mhz
Type APP/DEP Frequency 126.650 Mhz
Type APP/DEP Frequency 127.750 Mhz
Type APP/DEP Frequency 128.050 Mhz
Type ATIS Frequency 127.850 Mhz
Type ATIS Frequency 128.650 Mhz
Type Clearance Frequency 121.625 Mhz
Type Clearance Frequency 121.950 Mhz
Type Ground Frequency 121.625 Mhz
Type Ground Frequency 121.700 Mhz
Type Ground Frequency 121.800 Mhz
Type Ground Frequency 121.875 Mhz
Type Ground Frequency 121.650 Mhz
Type Ground Frequency 121.975 Mhz
Type Ground Frequency 122.125 Mhz
Type Ground Frequency 122.600 Mhz
Type Ground Frequency 122.700 Mhz
Type Tower Frequency 118.325 Mhz
Type Tower Frequency 118.400 Mhz
Type Tower Frequency 118.575 Mhz
Type Tower Frequency 118.725 Mhz
Type Tower Frequency 118.800 Mhz
Type Tower Frequency 124.350 Mhz
Type ATIS Frequency 131.450 Mhz
Type Clearance Frequency 121.950 Mhz
Type Ground Frequency 121.650 Mhz
Type Ground Frequency 121.975 Mhz
Type Ground Frequency 122.600 Mhz
Type Ground Frequency 122.700 Mhz

Airport Navaids

Type VOR-DME Ident HSH Frequency 114400 Khz
Type VOR-DME Ident NHW Frequency 114600 Khz
Type VOR-DME Ident PDL Frequency 109400 Khz
Type VOR-DME Ident PUD Frequency 116900 Khz
Type VOR-DME Ident SHY Frequency 113600 Khz